Hit Tracker is now ESPN Home Run Tracker! Hit Tracker founder Greg Rybarczyk is now collaborating with the ESPN Stats & Information Group to continue tracking all MLB home runs, and helping baseball fans know "How Far It Really Went!™" Please credit any information on this site to ESPN Stats & Information Group. For more information and analysis on home runs, please contact founder Greg Rybarczyk. E-Mail ESPN Home Run Tracker
Main Page | Ballparks | Park Overlays | Glossary | Highlight Homers | Feedback | Bio | 3 Types of HR's | AAA Home Run Derby Last Updated: June 23, 2017, 10:41 pm PST
If you want to know "How Far It Really Went!", then you've come to the right place! Welcome to the ESPN Home Run Tracker, where you can find accurate, transparently verifiable distances for every home run hit in MLB games. Please also check out the ESPN MLB Scoreboard throughout the 2017 season! Contact us at grybar@hittrackeronline.com.
Season:
Ballpark detail for SunTrust Park
Ballpark # of Home Runs HR per game Avg.
True
Distance
Avg.
Speed
Off
Bat
Avg.
Std.
Dist.
SunTrust Park 89 2.34 401.9 103.5 397.7

Scatter Plot of Home Runs SunTrust Park
 Overlay Ballpark:
Without range rings   With range rings

2017 Season Home Runs for SunTrust Park
Click headers to sort
Date ^ Video Path Hitter Hitter
Team
Pitcher Pitcher
Team
INN Ballpark Type/
Luck
True
Dist.
Speed
Off
Bat
Elev.
Angle
Horiz.
Angle
Apex Impact Due To: Std.
Dist.
#
Parks
Wind Temp. Alt.
06/23/17 Video View Phillips, Brandon ATL Nelson, Jimmy MIL 1 SunTrust Par... JE/L 397 99.4 34.4 102.3 118 12 -1 4 383 20
06/23/17 Video View Broxton, Keon MIL Foltynewicz, Mike ATL 4 SunTrust Par... PL 429 103.2 31.4 91.7 117 8 -1 3 419 27
06/22/17 Video View Markakis, Nick ATL Cain, Matt SF 1 SunTrust Par... ND 401 103.5 28.2 67.6 81 6 0 2 394 30
06/22/17 Video View Posey, Buster SF Garcia, Jaime ATL 2 SunTrust Par... JE/L 336 91.7 38.8 58.4 105 14 -1 4 319 0
06/22/17 Video View Adams, Matt ATL Cain, Matt SF 4 SunTrust Par... ND 438 106.6 30.9 75.6 112 12 -1 4 424 30
06/22/17 Video View Panik, Joe SF Garcia, Jaime ATL 5 SunTrust Par... JE 401 99.2 28.1 82.9 86 4 -1 1 395 11
06/22/17 Video View Phillips, Brandon ATL Cain, Matt SF 5 SunTrust Par... ND 412 106.5 35.9 117.7 128 19 -1 5 390 30
06/22/17 Video View Adams, Lane ATL Morris, Bryan SF 5 SunTrust Par... ND/L 396 103.9 36.8 120.9 123 18 -1 5 375 30
06/22/17 Video View Belt, Brandon SF Krol, Ian ATL 8 SunTrust Par... PL 387 100.6 32.2 65.1 99 5 -1 3 380 29
06/21/17 Video View Adams, Matt ATL Samardzija, Jeff SF 4 SunTrust Par... JE 406 109.0 20.2 81.5 58 1 0 0 405 16
06/21/17 Video View Flowers, Tyler ATL Samardzija, Jeff SF 7 SunTrust Par... JE 342 94.2 34.2 119.7 94 -3 0 3 342 17
06/21/17 Video View Pence, Hunter SF Johnson, Jim ATL 9 SunTrust Par... JE 420 109.0 19.9 93.8 63 1 0 0 418 20
06/21/17 Video View Kemp, Matt ATL Gearrin, Cory SF 11 SunTrust Par... JE 348 95.7 29.6 61.7 75 -2 0 1 348 12
06/20/17 Video View Slater, Austin SF Teheran, Julio ATL 8 SunTrust Par... JE 353 98.0 27.8 58.2 67 1 0 1 350 14
06/20/17 Video View Belt, Brandon SF Motte, Jason ATL 9 SunTrust Par... ND 439 107.6 29.5 74.9 107 7 -1 3 430 30
06/19/17 Video View Adams, Matt ATL Cueto, Johnny SF 4 SunTrust Par... ND 405 107.9 25.5 65.1 73 1 0 1 402 30
06/19/17 Video View Santana, Danny ATL Law, Derek SF 8 SunTrust Par... ND 413 106.9 31.8 63.7 109 0 1 4 408 30
06/18/17 Video View Ozuna, Marcell MIA Ramirez, Jose ATL 8 SunTrust Par... PL 395 106.7 24.9 114.0 68 0 1 2 393 30
06/17/17 Video View Adams, Matt ATL Locke, Jeff MIA 3 SunTrust Par... PL 405 100.9 28.4 100.1 92 0 2 2 401 26
06/17/17 Video View Moore, Tyler MIA Garcia, Jaime ATL 5 SunTrust Par... PL 388 102.6 35.0 117.3 117 0 4 4 380 30
06/17/17 Video View Flowers, Tyler ATL Ziegler, Brad MIA 6 SunTrust Par... PL 423 104.3 27.5 99.0 95 0 1 2 420 30
06/16/17 Video View Bour, Justin MIA Newcomb, Sean ATL 4 SunTrust Par... PL 432 106.7 23.7 86.0 78 1 0 1 430 28
06/10/17 Video View Phillips, Brandon ATL Salas, Fernando NYM 8 SunTrust Par... PL 379 106.6 23.7 117.7 59 0 1 1 378 30
06/10/17 Video View Cespedes, Yoenis NYM Jackson, Luke ATL 9 SunTrust Par... JE 399 99.3 29.5 98.5 96 0 2 2 395 12
06/10/17 Video View Bruce, Jay NYM Wisler, Matt ATL 5 SunTrust Par... PL 369 98.8 30.7 60.6 84 0 1 2 365 27
06/10/17 Video View Rivera, T.J. NYM O'Flaherty, Eric ATL 8 SunTrust Par... PL 394 101.5 33.3 107.3 117 -2 2 4 390 30
06/09/17 Video View Granderson, Curtis NYM Teheran, Julio ATL 3 SunTrust Par... JE 414 100.9 32.7 85.2 118 9 -1 3 403 9
06/09/17 Video View d'Arnaud, Travis NYM Motte, Jason ATL 7 SunTrust Par... JE 404 110.7 22.1 109.3 59 0 0 1 403 30
06/07/17 Video View Swanson, Dansby ATL Eickhoff, Jerad PHI 5 SunTrust Par... PL 409 102.2 31.3 102.2 111 -1 1 3 405 30
06/07/17 Video View Adams, Matt ATL Blanco, Andres PHI 8 SunTrust Par... PL 411 102.1 26.2 84.1 85 0 0 1 409 18
06/06/17 Video View Kendrick, Howard PHI Garcia, Jaime ATL 4 SunTrust Par... PL 414 103.9 26.1 100.9 81 2 -1 1 411 30
06/05/17 Video View Herrera, Odubel PHI Freeman, Sam ATL 4 SunTrust Par... JE 371 110.1 21.1 60.3 50 0 0 1 370 24
06/05/17 Video View Altherr, Aaron PHI O'Flaherty, Eric ATL 8 SunTrust Par... PL 423 104.1 25.7 94.1 87 0 0 1 421 27
06/05/17 Video View Joseph, Tommy PHI Colon, Bartolo ATL 1 SunTrust Par... ND 415 108.9 37.5 115.0 148 25 -1 7 385 30
05/25/17 Video View Frazier, Adam PIT Colon, Bartolo ATL 2 SunTrust Par... PL 407 102.5 28.3 71.7 82 10 0 2 396 29
05/24/17 Video View Frazier, Adam PIT Teheran, Julio ATL 2 SunTrust Par... ND 402 105.2 28.7 61.0 82 6 0 2 394 30
05/24/17 Video View Freese, David PIT Collmenter, Josh ATL 10 SunTrust Par... PL 422 102.0 30.4 95.0 107 8 -1 3 413 26
05/24/17 Video View Osuna, Jose PIT Collmenter, Josh ATL 10 SunTrust Par... PL 409 102.1 32.1 107.1 106 11 -2 4 396 30
05/24/17 Video View Mercer, Jordy PIT Collmenter, Josh ATL 10 SunTrust Par... PL 423 105.0 23.5 88.4 76 2 0 1 421 26
05/23/17 Video View Mercer, Jordy PIT Dickey, R.A. ATL 6 SunTrust Par... JE 345 95.9 30.4 61.8 82 -8 0 2 351 26
05/23/17 Video View Adams, Matt ATL Glasnow, Tyler PIT 6 SunTrust Par... PL 407 104.8 29.9 74.0 110 -10 0 3 414 30
05/22/17 Video View Phillips, Brandon ATL Cole, Gerrit PIT 3 SunTrust Par... PL 431 105.1 28.0 98.9 98 4 0 2 426 30
05/22/17 Video View Adams, Matt ATL Cole, Gerrit PIT 5 SunTrust Par... ND 401 105.7 30.9 71.6 116 -16 -1 4 413 30
05/21/17 Video View Murphy, Daniel WSH Garcia, Jaime ATL 2 SunTrust Par... ND 403 103.0 29.8 68.7 93 3 1 2 396 30
05/20/17 Video View Ruiz, Rio ATL Scherzer, Max WSH 2 SunTrust Par... JE 376 107.3 22.0 66.9 54 0 0 1 375 19
05/20/17 Video View Kemp, Matt ATL Scherzer, Max WSH 4 SunTrust Par... PL 423 110.0 20.5 96.0 62 1 1 0 422 26
05/20/17 Video View Flowers, Tyler ATL Albers, Matt WSH 8 SunTrust Par... PL 391 102.1 31.7 114.7 101 1 0 3 388 30
05/19/17 Video View Swanson, Dansby ATL Gonzalez, Gio WSH 2 SunTrust Par... PL 412 101.7 30.2 99.5 105 1 2 3 406 28
05/19/17 Video View Kemp, Matt ATL Gonzalez, Gio WSH 3 SunTrust Par... JE 413 106.0 22.0 84.2 67 1 0 0 412 18
05/19/17 Video View Murphy, Daniel WSH Dickey, R.A. ATL 4 SunTrust Par... JE 420 107.1 21.3 86.8 68 1 0 0 418 22
05/19/17 Video View Suzuki, Kurt ATL Romero, Enny WSH 8 SunTrust Par... PL 397 104.2 29.2 116.4 87 0 1 2 394 30
05/18/17 Video View Ceciliani, Darrell TOR Teheran, Julio ATL 3 SunTrust Par... ND 423 111.2 24.7 68.0 77 -2 2 2 421 30
05/18/17 Video View Maile, Luke TOR Teheran, Julio ATL 4 SunTrust Par... PL 389 102.1 28.9 111.2 90 -4 1 2 390 30
05/18/17 Video View Stroman, Marcus TOR Teheran, Julio ATL 4 SunTrust Par... PL 388 100.8 27.3 73.2 80 -1 1 2 386 28
05/17/17 Video View Suzuki, Kurt ATL Biagini, Joe TOR 1 SunTrust Par... PL 412 103.4 27.6 102.3 90 -1 2 2 409 30
05/17/17 Video View Smoak, Justin TOR Foltynewicz, Mike ATL 4 SunTrust Par... PL 404 101.3 28.7 79.6 97 -3 2 2 403 28
05/17/17 Video View Bautista, Jose TOR O'Flaherty, Eric ATL 8 SunTrust Par... PL 407 103.5 29.2 107.0 96 -1 2 3 405 30
05/07/17 Video View Carpenter, Matt STL Dickey, R.A. ATL 1 SunTrust Par... PL 406 101.0 30.5 72.9 93 12 0 3 392 29
05/07/17 Video View Pham, Tommy STL Dickey, R.A. ATL 3 SunTrust Par... JE 372 99.6 26.7 68.5 69 3 0 1 369 14
05/07/17 Video View Freeman, Freddie ATL Cecil, Brett STL 8 SunTrust Par... PL 405 101.6 28.1 102.8 88 3 -1 2 400 30
05/07/17 Video View Pham, Tommy STL Collmenter, Josh ATL 14 SunTrust Par... ND 404 107.5 36.3 117.7 138 10 -1 6 390 30
05/06/17 Video View Carpenter, Matt STL Teheran, Julio ATL 3 SunTrust Par... ND 411 107.9 27.1 63.0 80 3 0 2 406 30
05/06/17 Video View Adams, Matt STL Teheran, Julio ATL 4 SunTrust Par... ND 409 109.1 26.2 62.1 76 0 0 1 407 30
05/06/17 Video View Garcia, Adonis ATL Leake, Mike STL 7 SunTrust Par... PL 428 105.5 25.3 95.1 88 0 -1 1 428 27
05/05/17 Video View Pham, Tommy STL Foltynewicz, Mike ATL 3 SunTrust Par... JE 411 104.1 22.9 88.4 71 -1 -1 0 412 15
05/05/17 Video View Carpenter, Matt STL Foltynewicz, Mike ATL 4 SunTrust Par... JE/L 411 98.9 31.9 88.0 105 16 -4 3 396 0
05/02/17 Video View Bruce, Jay NYM Dickey, R.A. ATL 1 SunTrust Par... ND 424 105.9 31.5 75.7 120 0 1 4 419 30
05/02/17 Video View Freeman, Freddie ATL Harvey, Matt NYM 1 SunTrust Par... ND 405 105.9 32.8 62.7 112 1 0 4 401 30
05/02/17 Video View Cabrera, Asdrubal NYM Dickey, R.A. ATL 3 SunTrust Par... ND 411 104.6 28.0 73.2 91 0 0 2 409 30
05/02/17 Video View Bruce, Jay NYM Wisler, Matt ATL 9 SunTrust Par... JE 392 102.2 27.2 108.0 81 0 -1 2 391 30
05/01/17 Video View Conforto, Michael NYM Teheran, Julio ATL 1 SunTrust Par... JE 416 105.6 21.7 91.9 70 1 1 0 414 16
05/01/17 Video View Inciarte, Ender ATL Gsellman, Robert NYM 1 SunTrust Par... PL 373 101.0 28.4 61.6 77 -1 1 2 372 29
05/01/17 Video View Reyes, Jose NYM Krol, Ian ATL 8 SunTrust Par... JE 365 97.3 34.4 112.6 107 0 0 4 363 24
04/20/17 Video View Zimmerman, Ryan WSH Dickey, R.A. ATL 6 SunTrust Par... PL 431 104.1 29.5 93.9 109 3 1 3 426 29
04/19/17 Video View Harper, Bryce WSH Teheran, Julio ATL 1 SunTrust Par... PL 403 101.2 32.3 81.6 119 -4 1 4 402 28
04/19/17 Video View Harper, Bryce WSH Teheran, Julio ATL 2 SunTrust Par... JE 414 101.6 29.7 92.8 109 -2 1 2 413 21
04/19/17 Video View Freeman, Freddie ATL Ross, Joe WSH 3 SunTrust Par... PL 424 104.6 24.4 89.9 85 0 0 1 423 28
04/19/17 Video View Zimmerman, Ryan WSH Krol, Ian ATL 8 SunTrust Par... PL 398 104.8 24.9 72.9 73 -1 0 1 397 30
04/17/17 Video View Freeman, Freddie ATL Weaver, Jered SD 3 SunTrust Par... PL 410 102.3 27.8 79.3 91 1 0 1 407 28
04/17/17 Video View Cordoba, Allen SD Garcia, Jaime ATL 7 SunTrust Par... JE 400 108.0 23.3 109.0 64 0 0 1 399 30
04/17/17 Video View Hedges, Austin SD Vizcaino, Arodys ATL 8 SunTrust Par... PL 371 97.5 30.4 68.9 87 0 0 2 369 22
04/17/17 Video View Freeman, Freddie ATL Buchter, Ryan SD 8 SunTrust Par... PL 417 103.0 27.2 98.6 89 2 0 1 413 30
04/16/17 Video View Schimpf, Ryan SD Colon, Bartolo ATL 2 SunTrust Par... PL 419 103.0 28.2 96.1 101 -2 1 2 418 27
04/16/17 Video View Inciarte, Ender ATL Diaz, Miguel SD 7 SunTrust Par... PL 384 102.5 26.8 68.4 78 -4 1 2 385 30
04/15/17 Video View Renfroe, Hunter SD Dickey, R.A. ATL 2 SunTrust Par... PL 409 102.6 27.2 99.9 91 -3 0 1 409 30
04/15/17 Video View Hedges, Austin SD Dickey, R.A. ATL 2 SunTrust Par... PL 394 107.2 24.1 113.4 65 0 0 1 392 30
04/15/17 Video View Phillips, Brandon ATL Richard, Clayton SD 6 SunTrust Par... PL 438 108.1 24.3 95.8 89 -2 0 1 438 30
04/15/17 Video View Garcia, Adonis ATL Richard, Clayton SD 6 SunTrust Par... JE 391 99.9 28.7 80.0 99 -8 1 2 396 24
04/14/17 Video View Inciarte, Ender ATL Stammen, Craig SD 6 SunTrust Par... PL 353 97.4 37.5 62.8 120 0 0 5 348 23


About HitTracker | Contact Us
© 2006-2017 HitTrackerOnline